createdAt,value
2018-06-22T00:00:25.627Z,21.7
2018-06-22T00:01:25.445Z,21.73
2018-06-22T00:02:25.395Z,21.71
2018-06-22T00:03:25.609Z,21.71
2018-06-22T00:04:25.541Z,21.7
2018-06-22T00:05:25.818Z,21.7
2018-06-22T00:06:25.558Z,21.71
2018-06-22T00:07:25.628Z,21.71
2018-06-22T00:08:25.541Z,21.71
2018-06-22T00:09:25.782Z,21.7
2018-06-22T00:10:25.572Z,21.71
2018-06-22T00:11:25.410Z,21.7
2018-06-22T00:12:25.725Z,21.7
2018-06-22T00:13:25.607Z,21.71
2018-06-22T00:14:25.543Z,21.73
2018-06-22T00:15:25.593Z,21.71
2018-06-22T00:16:25.658Z,21.71
2018-06-22T00:17:25.541Z,21.68
2018-06-22T00:18:25.596Z,21.7
2018-06-22T00:19:25.496Z,21.71
2018-06-22T00:20:25.462Z,21.71
2018-06-22T00:21:25.735Z,21.7
2018-06-22T00:22:25.393Z,21.7
2018-06-22T00:23:25.564Z,21.73
2018-06-22T00:24:25.546Z,21.73
2018-06-22T00:25:25.456Z,21.7
2018-06-22T00:26:25.418Z,21.7
2018-06-22T00:27:25.605Z,21.68
2018-06-22T00:28:25.652Z,21.7
2018-06-22T00:29:25.359Z,21.7
2018-06-22T00:30:25.682Z,21.7
2018-06-22T00:31:25.453Z,21.7
2018-06-22T00:32:25.426Z,21.7
2018-06-22T00:33:25.844Z,21.68
2018-06-22T00:34:25.469Z,21.7
2018-06-22T00:35:25.461Z,21.7
2018-06-22T00:36:25.539Z,21.68
2018-06-22T00:37:25.431Z,21.7
2018-06-22T00:38:25.431Z,21.68
2018-06-22T00:39:25.579Z,21.68
2018-06-22T00:40:25.586Z,21.7
2018-06-22T00:41:25.384Z,21.7
2018-06-22T00:42:25.471Z,21.71
2018-06-22T00:43:25.456Z,21.67
2018-06-22T00:44:25.767Z,21.7
2018-06-22T00:45:25.458Z,21.7
2018-06-22T00:46:25.622Z,21.68
2018-06-22T00:47:25.491Z,21.68
2018-06-22T00:48:25.357Z,21.68
2018-06-22T00:49:25.370Z,21.7
2018-06-22T00:50:25.611Z,21.7
2018-06-22T00:51:25.852Z,21.68
2018-06-22T00:52:25.600Z,21.7
2018-06-22T00:53:25.403Z,21.7
2018-06-22T00:54:25.625Z,21.73
2018-06-22T00:55:25.581Z,21.67
2018-06-22T00:56:25.394Z,21.67
2018-06-22T00:57:25.534Z,21.7
2018-06-22T00:58:25.353Z,21.71
2018-06-22T00:59:25.485Z,21.68
2018-06-22T01:00:25.448Z,21.7
2018-06-22T01:01:25.651Z,21.7
2018-06-22T01:02:25.526Z,21.68
2018-06-22T01:03:25.580Z,21.7
2018-06-22T01:04:25.473Z,21.68
2018-06-22T01:05:25.544Z,21.68
2018-06-22T01:06:25.709Z,21.68
2018-06-22T01:07:25.379Z,21.7
2018-06-22T01:08:25.577Z,21.7
2018-06-22T01:09:25.625Z,21.7
2018-06-22T01:10:25.527Z,21.68
2018-06-22T01:11:25.404Z,21.7
2018-06-22T01:12:25.650Z,21.67
2018-06-22T01:13:25.495Z,21.68
2018-06-22T01:14:25.350Z,21.7
2018-06-22T01:15:25.570Z,21.67
2018-06-22T01:16:25.676Z,21.68
2018-06-22T01:17:25.587Z,21.67
2018-06-22T01:18:25.777Z,21.68
2018-06-22T01:19:25.750Z,21.68
2018-06-22T01:20:25.561Z,21.68
2018-06-22T01:21:25.639Z,21.67
2018-06-22T01:22:25.569Z,21.67
2018-06-22T01:23:25.514Z,21.68
2018-06-22T01:24:25.759Z,21.68
2018-06-22T01:25:25.435Z,21.7
2018-06-22T01:26:25.630Z,21.68
2018-06-22T01:27:25.558Z,21.67
2018-06-22T01:28:25.435Z,21.67
2018-06-22T01:29:25.594Z,21.66
2018-06-22T01:30:25.652Z,21.67
2018-06-22T01:31:25.541Z,21.66
2018-06-22T01:32:25.437Z,21.66
2018-06-22T01:33:25.655Z,21.68
2018-06-22T01:34:25.514Z,21.66
2018-06-22T01:35:25.472Z,21.66
2018-06-22T01:36:25.485Z,21.67
2018-06-22T01:37:25.647Z,21.67
2018-06-22T01:38:25.376Z,21.66
2018-06-22T01:39:25.637Z,21.67
2018-06-22T01:40:25.546Z,21.67
2018-06-22T01:41:25.662Z,21.68
2018-06-22T01:42:25.572Z,21.67
2018-06-22T01:43:25.588Z,21.67
2018-06-22T01:44:25.625Z,21.67
2018-06-22T01:45:25.600Z,21.66
2018-06-22T01:46:25.513Z,21.67
2018-06-22T01:47:25.426Z,21.67
2018-06-22T01:48:25.711Z,21.67
2018-06-22T01:49:25.583Z,21.67
2018-06-22T01:50:25.570Z,21.66
2018-06-22T01:51:25.559Z,21.68
2018-06-22T01:52:25.540Z,21.67
2018-06-22T01:53:25.535Z,21.67
2018-06-22T01:54:25.623Z,21.66
2018-06-22T01:55:25.429Z,21.67
2018-06-22T01:56:25.422Z,21.67
2018-06-22T01:57:25.487Z,21.64
2018-06-22T01:58:25.490Z,21.64
2018-06-22T01:59:25.588Z,21.67
2018-06-22T02:00:25.667Z,21.66
2018-06-22T02:01:25.592Z,21.66
2018-06-22T02:02:25.594Z,21.67
2018-06-22T02:03:25.752Z,21.64
2018-06-22T02:04:25.346Z,21.66
2018-06-22T02:05:25.388Z,21.64
2018-06-22T02:06:25.508Z,21.66
2018-06-22T02:07:25.389Z,21.66
2018-06-22T02:08:25.429Z,21.64
2018-06-22T02:09:25.403Z,21.66
2018-06-22T02:10:25.571Z,21.66
2018-06-22T02:11:25.493Z,21.64
2018-06-22T02:12:25.411Z,21.66
2018-06-22T02:13:25.551Z,21.67
2018-06-22T02:14:25.354Z,21.64
2018-06-22T02:15:25.530Z,21.66
2018-06-22T02:16:25.544Z,21.67
2018-06-22T02:17:25.755Z,21.67
2018-06-22T02:18:25.596Z,21.64
2018-06-22T02:19:25.462Z,21.63
2018-06-22T02:20:25.459Z,21.66
2018-06-22T02:21:25.411Z,21.66
2018-06-22T02:22:25.464Z,21.64
2018-06-22T02:23:25.390Z,21.64
2018-06-22T02:24:25.598Z,21.67
2018-06-22T02:25:25.523Z,21.63
2018-06-22T02:26:25.358Z,21.64
2018-06-22T02:27:25.431Z,21.63
2018-06-22T02:28:25.437Z,21.63
2018-06-22T02:29:25.449Z,21.64
2018-06-22T02:30:25.692Z,21.63
2018-06-22T02:31:25.656Z,21.64
2018-06-22T02:32:25.509Z,21.63
2018-06-22T02:33:25.489Z,21.66
2018-06-22T02:34:25.591Z,21.64
2018-06-22T02:35:25.628Z,21.66
2018-06-22T02:36:25.804Z,21.66
2018-06-22T02:37:25.414Z,21.64
2018-06-22T02:38:25.422Z,21.66
2018-06-22T02:39:25.573Z,21.63
2018-06-22T02:40:25.430Z,21.66
2018-06-22T02:41:25.374Z,21.63
2018-06-22T02:42:25.803Z,21.63
2018-06-22T02:43:25.329Z,21.66
2018-06-22T02:44:25.369Z,21.63
2018-06-22T02:45:25.675Z,21.64
2018-06-22T02:46:25.439Z,21.63
2018-06-22T02:47:25.725Z,21.61
2018-06-22T02:48:25.489Z,21.64
2018-06-22T02:49:25.484Z,21.64
2018-06-22T02:50:25.446Z,21.64
2018-06-22T02:51:25.526Z,21.66
2018-06-22T02:52:25.364Z,21.63
2018-06-22T02:53:25.447Z,21.6
2018-06-22T02:54:25.551Z,21.63
2018-06-22T02:55:25.645Z,21.63
2018-06-22T02:56:25.360Z,21.61
2018-06-22T02:57:25.504Z,21.61
2018-06-22T02:58:25.541Z,21.63
2018-06-22T02:59:25.299Z,21.63
2018-06-22T03:00:25.478Z,21.61
2018-06-22T03:01:25.392Z,21.64
2018-06-22T03:02:25.647Z,21.63
2018-06-22T03:03:25.537Z,21.63
2018-06-22T03:04:25.613Z,21.64
2018-06-22T03:05:25.396Z,21.63
2018-06-22T03:06:25.413Z,21.64
2018-06-22T03:07:25.727Z,21.63
2018-06-22T03:08:25.572Z,21.61
2018-06-22T03:09:25.542Z,21.63
2018-06-22T03:10:25.383Z,21.63
2018-06-22T03:11:25.467Z,21.64
2018-06-22T03:12:25.615Z,21.61
2018-06-22T03:13:25.752Z,21.61
2018-06-22T03:14:25.527Z,21.61
2018-06-22T03:15:25.476Z,21.63
2018-06-22T03:16:25.428Z,21.63
2018-06-22T03:17:25.437Z,21.64
2018-06-22T03:18:25.418Z,21.63
2018-06-22T03:19:55.868Z,21.61
2018-06-22T03:20:55.912Z,21.63
2018-06-22T03:21:55.805Z,21.64
2018-06-22T03:22:55.880Z,21.61
2018-06-22T03:23:55.710Z,21.63
2018-06-22T03:24:56.025Z,21.61
2018-06-22T03:25:55.913Z,21.63
2018-06-22T03:26:55.945Z,21.64
2018-06-22T03:27:56.001Z,21.63
2018-06-22T03:28:55.782Z,21.63
2018-06-22T03:29:55.869Z,21.61
2018-06-22T03:30:56.154Z,21.61
2018-06-22T03:31:56.524Z,21.63
2018-06-22T03:32:55.991Z,21.61
2018-06-22T03:33:55.735Z,21.63
2018-06-22T03:34:55.870Z,21.61
2018-06-22T03:35:55.860Z,21.63
2018-06-22T03:36:55.875Z,21.6
2018-06-22T03:37:55.983Z,21.61
2018-06-22T03:38:56.089Z,21.64
2018-06-22T03:39:55.848Z,21.63
2018-06-22T03:40:55.966Z,21.63
2018-06-22T03:41:55.926Z,21.61
2018-06-22T03:42:55.754Z,21.61
2018-06-22T03:43:55.791Z,21.61
2018-06-22T03:44:55.943Z,21.63
2018-06-22T03:45:55.994Z,21.63
2018-06-22T03:46:55.983Z,21.6
2018-06-22T03:47:56.116Z,21.6
2018-06-22T03:48:55.793Z,21.61
2018-06-22T03:49:55.848Z,21.61
2018-06-22T03:50:55.928Z,21.61
2018-06-22T03:51:55.900Z,21.61
2018-06-22T03:52:56.096Z,21.63
2018-06-22T03:53:56.002Z,21.63
2018-06-22T03:54:56.069Z,21.6
2018-06-22T03:55:55.781Z,21.6
2018-06-22T03:56:56.021Z,21.6
2018-06-22T03:57:55.849Z,21.59
2018-06-22T03:58:55.861Z,21.61
2018-06-22T03:59:55.947Z,21.6
2018-06-22T04:00:56.033Z,21.6
2018-06-22T04:01:56.018Z,21.6
2018-06-22T04:02:55.998Z,21.6
2018-06-22T04:03:55.887Z,21.61
2018-06-22T04:04:55.753Z,21.6
2018-06-22T04:05:55.917Z,21.63
2018-06-22T04:06:55.761Z,21.61
2018-06-22T04:07:55.878Z,21.61
2018-06-22T04:08:56.181Z,21.6
2018-06-22T04:09:55.995Z,21.39
2018-06-22T04:10:56.040Z,21.27
2018-06-22T04:11:56.016Z,21.22
2018-06-22T04:12:55.858Z,21.16
2018-06-22T04:13:55.915Z,21.14
2018-06-22T04:14:55.847Z,20.99
2018-06-22T04:15:56.026Z,20.92
2018-06-22T04:16:55.951Z,20.85
2018-06-22T04:17:55.705Z,20.84
2018-06-22T04:18:55.826Z,20.82
2018-06-22T04:19:55.943Z,20.84
2018-06-22T04:20:55.929Z,20.7
2018-06-22T04:21:56.001Z,20.71
2018-06-22T04:22:55.902Z,20.71
2018-06-22T04:23:55.988Z,20.63
2018-06-22T04:24:56.381Z,20.59
2018-06-22T04:25:56.012Z,20.6
2018-06-22T04:26:55.814Z,20.54
2018-06-22T04:27:56.013Z,20.5
2018-06-22T04:28:56.026Z,20.48
2018-06-22T04:29:56.093Z,20.5
2018-06-22T04:30:55.765Z,20.44
2018-06-22T04:31:55.917Z,20.47
2018-06-22T04:32:55.850Z,20.43
2018-06-22T04:33:55.918Z,20.42
2018-06-22T04:34:55.877Z,20.39
2018-06-22T04:35:55.756Z,20.36
2018-06-22T04:36:55.971Z,20.35
2018-06-22T04:37:56.024Z,20.27
2018-06-22T04:38:55.753Z,20.22
2018-06-22T04:39:55.876Z,20.2
2018-06-22T04:40:55.819Z,20.2
2018-06-22T04:41:55.902Z,20.19
2018-06-22T04:42:56.118Z,20.15
2018-06-22T04:43:55.941Z,20.16
2018-06-22T04:44:55.774Z,20.16
2018-06-22T04:45:55.864Z,20.09
2018-06-22T04:46:55.860Z,20.11
2018-06-22T04:47:56.041Z,20.12
2018-06-22T04:48:55.967Z,20.11
2018-06-22T04:49:55.735Z,20.12
2018-06-22T04:50:56.049Z,20.15
2018-06-22T04:51:55.997Z,20.13
2018-06-22T04:52:55.937Z,20.11
2018-06-22T04:53:55.834Z,20.11
2018-06-22T04:54:55.872Z,20.08
2018-06-22T04:55:55.943Z,20.09
2018-06-22T04:56:55.828Z,20.08
2018-06-22T04:57:55.858Z,20.08
2018-06-22T04:58:56.037Z,20.04
2018-06-22T04:59:55.780Z,20.04
2018-06-22T05:00:55.863Z,19.99
2018-06-22T05:01:55.973Z,20.01
2018-06-22T05:02:55.893Z,20.01
2018-06-22T05:03:55.807Z,19.98
2018-06-22T05:04:55.860Z,19.93
2018-06-22T05:05:55.819Z,19.89
2018-06-22T05:06:55.972Z,19.92
2018-06-22T05:07:55.782Z,19.96
2018-06-22T05:08:55.869Z,19.96
2018-06-22T05:09:55.780Z,19.93
2018-06-22T05:10:56.017Z,19.92
2018-06-22T05:11:55.761Z,19.92
2018-06-22T05:12:55.901Z,19.89
2018-06-22T05:13:55.827Z,19.88
2018-06-22T05:14:55.883Z,19.88
2018-06-22T05:15:55.898Z,19.86
2018-06-22T05:16:55.923Z,19.85
2018-06-22T05:17:55.926Z,19.8
2018-06-22T05:18:55.890Z,19.8
2018-06-22T05:19:56.097Z,19.8
2018-06-22T05:20:55.978Z,19.85
2018-06-22T05:21:56.054Z,19.81
2018-06-22T05:22:55.766Z,19.81
2018-06-22T05:23:55.938Z,19.84
2018-06-22T05:24:56.701Z,19.84
2018-06-22T05:25:55.818Z,19.85
2018-06-22T05:26:55.970Z,19.85
2018-06-22T05:27:55.933Z,19.81
2018-06-22T05:28:55.809Z,19.81
2018-06-22T05:29:55.870Z,19.77
2018-06-22T05:30:55.853Z,19.77
2018-06-22T05:31:55.883Z,19.78
2018-06-22T05:32:55.832Z,19.75
2018-06-22T05:33:55.764Z,19.77
2018-06-22T05:34:55.959Z,19.78
2018-06-22T05:35:56.843Z,19.74
2018-06-22T05:36:55.818Z,19.74
2018-06-22T05:37:55.889Z,19.73
2018-06-22T05:38:55.748Z,19.78
2018-06-22T05:39:55.967Z,19.77
2018-06-22T05:40:55.765Z,19.58
2018-06-22T05:41:55.755Z,19.45
2018-06-22T05:42:55.854Z,19.27
2018-06-22T05:43:55.842Z,19.15
2018-06-22T05:44:55.817Z,19.15
2018-06-22T05:45:55.776Z,19.11
2018-06-22T05:46:55.854Z,18.98
2018-06-22T05:47:55.765Z,18.85
2018-06-22T05:48:56.005Z,18.8
2018-06-22T05:49:55.771Z,18.75
2018-06-22T05:50:56.334Z,18.71
2018-06-22T05:51:55.757Z,18.74
2018-06-22T05:52:55.847Z,18.9
2018-06-22T05:53:55.895Z,19.08
2018-06-22T05:54:55.999Z,19.19
2018-06-22T05:55:55.809Z,19.29
2018-06-22T05:56:55.750Z,19.35
2018-06-22T05:57:55.979Z,19.4
2018-06-22T05:58:55.751Z,19.5
2018-06-22T05:59:55.973Z,19.56
2018-06-22T06:00:55.778Z,19.61
2018-06-22T06:01:55.888Z,19.67
2018-06-22T06:02:55.781Z,19.73
2018-06-22T06:03:55.809Z,19.73
2018-06-22T06:04:55.835Z,19.77
2018-06-22T06:05:55.949Z,19.8
2018-06-22T06:06:55.847Z,19.82
2018-06-22T06:07:56.030Z,19.85
2018-06-22T06:08:55.898Z,19.88
2018-06-22T06:09:55.702Z,19.92
2018-06-22T06:10:55.923Z,19.92
2018-06-22T06:11:55.922Z,19.93
2018-06-22T06:12:56.012Z,19.95
2018-06-22T06:13:55.732Z,20.01
2018-06-22T06:14:56.210Z,20.04
2018-06-22T06:15:55.864Z,20.05
2018-06-22T06:16:55.953Z,20.07
2018-06-22T06:17:55.786Z,20.05
2018-06-22T06:18:55.779Z,20.08
2018-06-22T06:19:56.203Z,20.12
2018-06-22T06:20:56.163Z,20.13
2018-06-22T06:21:55.970Z,20.09
2018-06-22T06:22:55.873Z,20.12
2018-06-22T06:23:55.886Z,20.12
2018-06-22T06:24:56.276Z,20.15
2018-06-22T06:25:55.797Z,20.16
2018-06-22T06:26:55.792Z,20.15
2018-06-22T06:28:05.908Z,20.13
2018-06-22T06:28:55.876Z,20.16
2018-06-22T06:29:55.785Z,20.15
2018-06-22T06:30:55.723Z,20.16
2018-06-22T06:31:55.912Z,20.16
2018-06-22T06:32:55.760Z,20.19
2018-06-22T06:33:55.911Z,20.18
2018-06-22T06:34:55.821Z,20.2
2018-06-22T06:35:55.913Z,20.18
2018-06-22T06:36:55.859Z,20.18
2018-06-22T06:37:55.899Z,20.23
2018-06-22T06:38:55.782Z,20.23
2018-06-22T06:39:55.804Z,20.26
2018-06-22T06:40:55.796Z,20.26
2018-06-22T06:41:56.335Z,20.25
2018-06-22T06:42:55.886Z,20.3
2018-06-22T06:43:55.855Z,20.32
2018-06-22T06:44:55.916Z,20.32
2018-06-22T06:45:55.812Z,20.3
2018-06-22T06:46:55.831Z,20.3
2018-06-22T06:47:55.837Z,20.32
2018-06-22T06:48:55.747Z,20.36
2018-06-22T06:49:55.730Z,20.36
2018-06-22T06:50:55.817Z,20.37
2018-06-22T06:51:55.756Z,20.37
2018-06-22T06:52:55.791Z,20.36
2018-06-22T06:53:55.808Z,20.39
2018-06-22T06:54:55.728Z,20.39
2018-06-22T06:55:55.751Z,20.42
2018-06-22T06:56:55.751Z,20.4
2018-06-22T06:57:55.716Z,20.42
2018-06-22T06:58:55.733Z,20.44
2018-06-22T06:59:55.797Z,20.46
2018-06-22T07:00:55.871Z,20.47
2018-06-22T07:01:55.806Z,20.46
2018-06-22T07:02:55.798Z,20.5
2018-06-22T07:03:55.898Z,20.5
2018-06-22T07:04:56.035Z,20.48
2018-06-22T07:05:56.042Z,20.5
2018-06-22T07:06:55.956Z,20.5
2018-06-22T07:07:55.735Z,20.54
2018-06-22T07:08:55.857Z,20.57
2018-06-22T07:09:55.703Z,20.59
2018-06-22T07:10:55.824Z,20.59
2018-06-22T07:11:55.954Z,20.57
2018-06-22T07:12:55.919Z,20.57
2018-06-22T07:13:55.682Z,20.59
2018-06-22T07:14:55.891Z,20.59
2018-06-22T07:15:56.014Z,20.6
2018-06-22T07:16:55.735Z,20.6
2018-06-22T07:17:55.722Z,20.64
2018-06-22T07:18:55.892Z,20.66
2018-06-22T07:19:55.971Z,20.67
2018-06-22T07:20:55.756Z,20.7
2018-06-22T07:21:55.812Z,20.7
2018-06-22T07:22:56.062Z,20.7
2018-06-22T07:23:55.746Z,20.7
2018-06-22T07:24:55.821Z,20.72
2018-06-22T07:25:55.761Z,20.75
2018-06-22T07:26:55.982Z,20.74
2018-06-22T07:27:55.671Z,20.75
2018-06-22T07:28:55.808Z,20.75
2018-06-22T07:29:55.714Z,20.77
2018-06-22T07:30:55.806Z,20.8
2018-06-22T07:31:55.733Z,20.78
2018-06-22T07:32:55.994Z,20.8
2018-06-22T07:33:56.127Z,20.8
2018-06-22T07:34:55.949Z,20.8
2018-06-22T07:35:56.099Z,20.8
2018-06-22T07:36:55.743Z,20.8
2018-06-22T07:37:56.024Z,20.78
2018-06-22T07:38:55.750Z,20.8
2018-06-22T07:39:55.778Z,20.78
2018-06-22T07:40:55.920Z,20.8
2018-06-22T07:41:55.851Z,20.8
2018-06-22T07:42:55.995Z,20.81
2018-06-22T07:43:56.169Z,20.81
2018-06-22T07:44:55.904Z,20.8
2018-06-22T07:46:05.781Z,20.78
2018-06-22T07:46:55.861Z,20.82
2018-06-22T07:47:55.725Z,20.8
2018-06-22T07:48:55.800Z,20.8
2018-06-22T07:49:56.556Z,20.81
2018-06-22T07:50:55.740Z,20.81
2018-06-22T07:51:55.895Z,20.8
2018-06-22T07:52:55.776Z,20.8
2018-06-22T07:53:55.915Z,20.8
2018-06-22T07:54:55.689Z,20.82
2018-06-22T07:55:55.760Z,20.82
2018-06-22T07:56:55.923Z,20.84
2018-06-22T07:57:56.289Z,20.87
2018-06-22T07:58:55.851Z,20.87
2018-06-22T07:59:55.836Z,20.85
2018-06-22T08:00:55.922Z,20.85
2018-06-22T08:01:55.843Z,20.89
2018-06-22T08:02:55.927Z,20.87
2018-06-22T08:04:05.784Z,20.88
2018-06-22T08:04:55.831Z,20.88
2018-06-22T08:05:55.714Z,20.88
2018-06-22T08:06:55.811Z,20.85
2018-06-22T08:07:55.907Z,20.85
2018-06-22T08:08:55.984Z,20.89
2018-06-22T08:09:55.944Z,20.89
2018-06-22T08:10:56.036Z,20.91
2018-06-22T08:11:55.823Z,20.88
2018-06-22T08:12:55.836Z,20.89
2018-06-22T08:13:55.748Z,20.89
2018-06-22T08:14:55.888Z,20.91
2018-06-22T08:15:55.879Z,20.91
2018-06-22T08:16:56.649Z,20.92
2018-06-22T08:17:55.951Z,20.91
2018-06-22T08:18:55.980Z,20.94
2018-06-22T08:19:56.442Z,20.92
2018-06-22T08:20:56.053Z,20.92
2018-06-22T08:22:15.826Z,20.94
2018-06-22T08:22:56.081Z,20.91
2018-06-22T08:23:55.807Z,20.91
2018-06-22T08:24:55.847Z,20.92
2018-06-22T08:25:55.811Z,20.95
2018-06-22T08:26:55.854Z,20.94
2018-06-22T08:27:55.861Z,20.91
2018-06-22T08:28:56.121Z,20.92
2018-06-22T08:29:56.139Z,20.94
2018-06-22T08:30:55.748Z,20.94
2018-06-22T08:31:55.816Z,20.95
2018-06-22T08:32:55.949Z,20.95
2018-06-22T08:33:55.766Z,20.97
2018-06-22T08:34:56.380Z,20.95
2018-06-22T08:35:55.948Z,20.94
2018-06-22T08:36:56.441Z,20.97
2018-06-22T08:37:55.840Z,20.98
2018-06-22T08:38:55.995Z,20.98
2018-06-22T08:39:55.806Z,20.98
2018-06-22T08:40:55.793Z,21.01
2018-06-22T08:41:56.577Z,20.97
2018-06-22T08:42:57.171Z,20.99
2018-06-22T08:43:55.869Z,20.98
2018-06-22T08:44:55.848Z,21.02
2018-06-22T08:45:55.740Z,20.99
2018-06-22T08:46:55.962Z,21.03
2018-06-22T08:47:56.086Z,21.05
2018-06-22T08:48:58.865Z,21.01
2018-06-22T08:49:55.942Z,21.05
2018-06-22T08:50:55.651Z,21.05
2018-06-22T08:51:55.697Z,21.05
2018-06-22T08:52:55.900Z,21.01
2018-06-22T08:53:55.809Z,21.03
2018-06-22T08:54:56.044Z,21.01
2018-06-22T08:55:55.885Z,21.06
2018-06-22T08:56:55.955Z,21.03
2018-06-22T08:57:55.964Z,21.02
2018-06-22T08:58:55.777Z,21.05
2018-06-22T08:59:55.738Z,21.03
2018-06-22T09:00:55.929Z,21.05
2018-06-22T09:01:55.762Z,21.06
2018-06-22T09:02:55.822Z,21.05
2018-06-22T09:03:55.749Z,21.08
2018-06-22T09:04:55.699Z,21.06
2018-06-22T09:05:55.947Z,21.08
2018-06-22T09:06:55.893Z,21.11
2018-06-22T09:07:55.914Z,21.09
2018-06-22T09:08:55.729Z,21.08
2018-06-22T09:09:55.697Z,21.11
2018-06-22T09:10:55.843Z,21.08
2018-06-22T09:11:55.936Z,21.11
2018-06-22T09:12:55.898Z,21.11
2018-06-22T09:13:55.774Z,21.09
2018-06-22T09:14:55.938Z,21.14
2018-06-22T09:15:55.805Z,21.09
2018-06-22T09:16:55.737Z,21.14
2018-06-22T09:17:55.702Z,21.11
2018-06-22T09:18:56.006Z,21.12
2018-06-22T09:19:55.769Z,21.11
2018-06-22T09:20:55.809Z,21.11
2018-06-22T09:21:55.752Z,21.11
2018-06-22T09:22:56.052Z,21.08
2018-06-22T09:23:55.893Z,21.14
2018-06-22T09:24:55.962Z,21.16
2018-06-22T09:25:55.880Z,21.18
2018-06-22T09:26:55.681Z,21.18
2018-06-22T09:27:55.746Z,21.15
2018-06-22T09:28:55.959Z,21.16
2018-06-22T09:29:55.893Z,21.16
2018-06-22T09:30:55.868Z,21.18
2018-06-22T09:31:55.788Z,21.19
2018-06-22T09:32:55.907Z,21.19
2018-06-22T09:33:56.011Z,21.14
2018-06-22T09:34:55.893Z,21.14
2018-06-22T09:35:55.738Z,21.12
2018-06-22T09:36:56.130Z,21.14
2018-06-22T09:37:55.868Z,21.15
2018-06-22T09:38:55.914Z,21.15
2018-06-22T09:39:55.772Z,21.14
2018-06-22T09:40:56.021Z,21.11
2018-06-22T09:41:55.833Z,21.09
2018-06-22T09:42:56.646Z,21.11
2018-06-22T09:43:55.911Z,21.08
2018-06-22T09:44:55.962Z,21.06
2018-06-22T09:45:55.971Z,21.05
2018-06-22T09:46:56.003Z,21.05
2018-06-22T09:47:56.160Z,21.05
2018-06-22T09:48:55.734Z,21.05
2018-06-22T09:49:55.754Z,21.06
2018-06-22T09:50:55.876Z,21.06
2018-06-22T09:51:55.909Z,21.02
2018-06-22T09:52:56.032Z,21.03
2018-06-22T09:53:55.653Z,21.05
2018-06-22T09:54:55.684Z,21.06
2018-06-22T09:55:55.862Z,21.03
2018-06-22T09:56:55.819Z,21.03
2018-06-22T09:57:55.872Z,21.02
2018-06-22T09:58:55.728Z,21.03
2018-06-22T09:59:55.698Z,21.03
2018-06-22T10:00:55.717Z,21.03
2018-06-22T10:01:56.014Z,21.06
2018-06-22T10:02:55.694Z,21.03
2018-06-22T10:03:55.944Z,21.05
2018-06-22T10:04:56.061Z,21.03
2018-06-22T10:05:56.898Z,21.03
2018-06-22T10:06:55.829Z,21.03
2018-06-22T10:07:55.757Z,21.03
2018-06-22T10:08:55.740Z,21.01
2018-06-22T10:09:55.866Z,21.02
2018-06-22T10:10:55.907Z,21.03
2018-06-22T10:11:55.634Z,21.02
2018-06-22T10:12:55.673Z,21.03
2018-06-22T10:13:56.304Z,21.03
2018-06-22T10:14:55.812Z,21.01
2018-06-22T10:15:55.900Z,21.06
2018-06-22T10:16:55.716Z,21.02
2018-06-22T10:17:55.860Z,21.02
2018-06-22T10:18:55.689Z,21.02
2018-06-22T10:19:55.815Z,21.02
2018-06-22T10:20:55.727Z,21.02
2018-06-22T10:21:55.768Z,21.01
2018-06-22T10:22:55.713Z,21.05
2018-06-22T10:23:55.744Z,21.02
2018-06-22T10:24:55.770Z,21.01
2018-06-22T10:25:55.721Z,21.03
2018-06-22T10:26:56.144Z,21.02
2018-06-22T10:27:55.856Z,21.03
2018-06-22T10:28:55.963Z,21.01
2018-06-22T10:29:55.730Z,21.01
2018-06-22T10:30:56.004Z,21.02
2018-06-22T10:31:55.773Z,21.05
2018-06-22T10:32:55.802Z,21.02
2018-06-22T10:33:56.728Z,21.02
2018-06-22T10:34:56.387Z,21.03
2018-06-22T10:35:56.106Z,21.01
2018-06-22T10:36:56.021Z,21.02
2018-06-22T10:37:55.805Z,21.01
2018-06-22T10:38:55.873Z,21.02
2018-06-22T10:39:56.025Z,21.02
2018-06-22T10:40:55.892Z,20.99
2018-06-22T10:41:55.888Z,21.03
2018-06-22T10:42:55.893Z,21.01
2018-06-22T10:43:55.749Z,21.02
2018-06-22T10:44:55.877Z,21.02
2018-06-22T10:45:56.340Z,21.02
2018-06-22T10:46:55.907Z,21.01
2018-06-22T10:47:55.784Z,21.01
2018-06-22T10:48:55.940Z,21.02
2018-06-22T10:49:55.964Z,21.01
2018-06-22T10:50:56.068Z,21.01
2018-06-22T10:51:55.945Z,21.03
2018-06-22T10:52:56.115Z,20.99
2018-06-22T10:53:55.893Z,21.01
2018-06-22T10:54:55.782Z,21.01
2018-06-22T10:55:55.712Z,21.01
2018-06-22T10:56:55.867Z,21.01
2018-06-22T10:57:55.696Z,21.02
2018-06-22T10:58:55.980Z,21.01
2018-06-22T10:59:56.189Z,21.02
2018-06-22T11:00:55.773Z,21.02
2018-06-22T11:01:56.000Z,21.02
2018-06-22T11:02:55.949Z,21.02
2018-06-22T11:03:56.057Z,21.03
2018-06-22T11:04:56.151Z,21.03
2018-06-22T11:05:55.756Z,21.02
2018-06-22T11:06:55.927Z,21.02
2018-06-22T11:07:55.818Z,21.03
2018-06-22T11:08:55.743Z,21.02
2018-06-22T11:09:55.843Z,21.02
2018-06-22T11:10:55.857Z,21.03
2018-06-22T11:11:55.768Z,21.01
2018-06-22T11:12:55.825Z,21.03
2018-06-22T11:13:56.174Z,21.02
2018-06-22T11:14:55.818Z,21.03
2018-06-22T11:15:55.865Z,21.02
2018-06-22T11:16:56.182Z,21.02
2018-06-22T11:17:55.702Z,21.02
2018-06-22T11:18:55.899Z,21.02
2018-06-22T11:19:55.759Z,21.03
2018-06-22T11:20:55.867Z,21.01
2018-06-22T11:21:55.975Z,21.03
2018-06-22T11:22:55.866Z,21.01
2018-06-22T11:24:05.710Z,21.02
2018-06-22T11:24:56.790Z,21.03
2018-06-22T11:25:55.934Z,21.03
2018-06-22T11:26:55.737Z,21.02
2018-06-22T11:27:55.717Z,21.03
2018-06-22T11:28:55.879Z,21.03
2018-06-22T11:29:55.785Z,21.02
2018-06-22T11:30:57.012Z,21.03
2018-06-22T11:31:55.952Z,21.02
2018-06-22T11:32:55.801Z,21.02
2018-06-22T11:33:55.885Z,21.01
2018-06-22T11:34:55.742Z,21.03
2018-06-22T11:35:55.721Z,21.02
2018-06-22T11:36:55.900Z,21.03
2018-06-22T11:37:55.954Z,21.01
2018-06-22T11:38:55.743Z,21.03
2018-06-22T11:39:55.812Z,21.03
2018-06-22T11:40:55.939Z,21.03
2018-06-22T11:41:55.638Z,21.01
2018-06-22T11:42:55.745Z,21.02
2018-06-22T11:43:55.850Z,21.03
2018-06-22T11:44:55.784Z,21.03
2018-06-22T11:45:55.818Z,21.05
2018-06-22T11:46:56.023Z,21.03
2018-06-22T11:47:55.943Z,21.02
2018-06-22T11:48:55.764Z,21.02
2018-06-22T11:49:56.004Z,21.03
2018-06-22T11:50:55.648Z,21.02
2018-06-22T11:51:55.675Z,21.02
2018-06-22T11:52:55.844Z,21.03
2018-06-22T11:53:55.850Z,21.01
2018-06-22T11:54:55.783Z,21.01
2018-06-22T11:55:55.906Z,21.03
2018-06-22T11:56:55.984Z,21.01
2018-06-22T11:57:55.822Z,21.02
2018-06-22T11:58:55.759Z,21.02
2018-06-22T12:00:05.767Z,21.01
2018-06-22T12:00:55.974Z,21.05
2018-06-22T12:01:55.971Z,21.02
2018-06-22T12:02:55.849Z,21.03
2018-06-22T12:03:55.859Z,21.03
2018-06-22T12:04:55.835Z,21.02
2018-06-22T12:05:55.810Z,21.03
2018-06-22T12:06:55.686Z,21.02
2018-06-22T12:07:55.793Z,21.03
2018-06-22T12:08:55.756Z,21.02
2018-06-22T12:09:55.934Z,21.02
2018-06-22T12:10:55.874Z,21.01
2018-06-22T12:11:55.842Z,21.02
2018-06-22T12:12:56.451Z,21.03
2018-06-22T12:13:55.827Z,21.03
2018-06-22T12:14:55.777Z,21.02
2018-06-22T12:15:55.971Z,21.03
2018-06-22T12:16:55.810Z,21.03
2018-06-22T12:17:55.728Z,21.03
2018-06-22T12:18:55.656Z,21.02
2018-06-22T12:19:55.691Z,21.02
2018-06-22T12:20:55.700Z,21.05
2018-06-22T12:21:55.835Z,21.03
2018-06-22T12:22:55.975Z,21.02
2018-06-22T12:23:55.756Z,21.01
2018-06-22T12:24:55.717Z,21.03
2018-06-22T12:25:55.724Z,21.03
2018-06-22T12:26:55.879Z,21.05
2018-06-22T12:27:55.853Z,21.05
2018-06-22T12:28:55.636Z,21.05
2018-06-22T12:29:55.884Z,21.05
2018-06-22T12:30:55.819Z,21.03
2018-06-22T12:31:55.907Z,21.05
2018-06-22T12:32:56.244Z,21.05
2018-06-22T12:33:55.835Z,21.03
2018-06-22T12:34:55.743Z,21.06
2018-06-22T12:35:55.901Z,21.03
2018-06-22T12:36:55.688Z,21.05
2018-06-22T12:37:56.097Z,21.05
2018-06-22T12:38:56.066Z,21.03
2018-06-22T12:39:56.281Z,21.02
2018-06-22T12:40:56.207Z,21.02
2018-06-22T12:41:56.108Z,21.02
2018-06-22T12:42:56.235Z,21.03
2018-06-22T12:43:55.857Z,21.08
2018-06-22T12:44:56.188Z,21.03
2018-06-22T12:45:55.746Z,21.03
2018-06-22T12:46:55.800Z,21.06
2018-06-22T12:47:55.842Z,21.03
2018-06-22T12:48:57.023Z,21.06
2018-06-22T12:49:55.818Z,21.06
2018-06-22T12:50:56.035Z,21.03
2018-06-22T12:51:55.904Z,21.03
2018-06-22T12:52:55.876Z,21.05
2018-06-22T12:53:55.776Z,21.05
2018-06-22T12:54:55.733Z,21.05
2018-06-22T12:55:55.790Z,21.05